Buoy 41991

sailwx.info

Track history (hours):
 
Tides and Currents Weather Stations Pressure Air Temp Water Temp Dewpoint Dewpoint Depression Visibility Wind Speed Wind Dir Waves Ship Positions

Drifting buoy 41991

Last reported at 2015-Apr-19 23:53 UTC. Time now 2015-Apr-20 00:49 UTC.
Position N 28°48' W 042°11'.

Water temperature 21.4 ° C

Date/timePositionNaut miles runAvg speedWind from/ knotsBaromVisibWave heightAir tempDewpointWater temp
2015-Apr-19 23:53N 28°48' W 042°11'0 0.0 21.4
2015-Apr-19 23:49N 28°48' W 042°11'1 1.3 21.4
2015-Apr-19 22:57N 28°47' W 042°10'120.9 21.5
2015-Apr-19 22:54N 28°48' W 042°11'1 0.9 21.5
2015-Apr-19 21:50N 28°47' W 042°10'0 0.0 21.5
2015-Apr-19 20:10N 28°47' W 042°10'1 3.7 21.6
2015-Apr-19 19:57N 28°47' W 042°11'1 0.2 21.7
2015-Apr-19 17:08N 28°47' W 042°12'3 0.3 21.7
2015-Apr-19 07:11N 28°44' W 042°11'0 0.0 21.6
2015-Apr-19 03:58N 28°44' W 042°11'010.9 21.6
2015-Apr-19 03:56N 28°44' W 042°11'0 0.1 21.6
2015-Apr-19 00:11N 28°45' W 042°11'0 4.2 21.6
2015-Apr-19 00:04N 28°44' W 042°10'1 0.2
2015-Apr-18 20:11N 28°44' W 042°10'1 7.8 21.7
2015-Apr-18 20:07N 28°45' W 042°10'1 0.9 21.7
2015-Apr-18 18:58N 28°44' W 042°09'1 0.1 21.7
2015-Apr-18 11:58N 28°45' W 042°09'111.3 21.7
2015-Apr-18 11:55N 28°45' W 042°09'0 0.0 21.7
2015-Apr-18 11:10N 28°45' W 042°09'0 0.8 21.7
2015-Apr-18 10:31N 28°45' W 042°09'0 0.2 21.6
2015-Apr-18 09:14N 28°45' W 042°08'1 0.2 21.6
2015-Apr-18 07:04N 28°45' W 042°08'0 1.4 21.6
2015-Apr-18 06:57N 28°45' W 042°08'1 0.3 21.6
2015-Apr-18 04:11N 28°45' W 042°07'119.3 21.7
2015-Apr-18 04:08N 28°45' W 042°06'1 0.2 21.7
2015-Apr-17 22:54N 28°46' W 042°06'1 1.5 21.7
2015-Apr-17 21:57N 28°47' W 042°04'0 0.3 21.7
2015-Apr-17 21:03N 28°47' W 042°04'1 0.5 21.7
2015-Apr-17 19:57N 28°47' W 042°04'0 9.6 21.8
2015-Apr-17 19:55N 28°47' W 042°04'4 0.6 21.8
2015-Apr-17 14:02N 28°51' W 042°03'0 0.0 21.8
2015-Apr-17 13:12N 28°51' W 042°03'1 0.8 21.8
2015-Apr-17 12:26N 28°52' W 042°04'1 6.9 21.8
2015-Apr-17 12:15N 28°53' W 042°05'1 0.2 21.8
2015-Apr-17 08:57N 28°53' W 042°05'111.4 21.8
2015-Apr-17 08:52N 28°54' W 042°06'0 0.0 21.8
2015-Apr-17 08:06N 28°54' W 042°06'0 0.4 21.8
2015-Apr-17 07:12N 28°54' W 042°06'116.4 21.7
2015-Apr-17 07:10N 28°55' W 042°06'0 0.0 21.7
2015-Apr-17 06:06N 28°55' W 042°06'0 9.8 21.7
2015-Apr-17 06:03N 28°55' W 042°06'113.3 21.7
2015-Apr-17 05:57N 28°55' W 042°07'2 0.5
2015-Apr-17 01:41N 28°57' W 042°07'2 2.8 21.8
2015-Apr-17 00:51N 28°58' W 042°10'0 0.0 21.8
2015-Apr-16 23:57N 28°58' W 042°10'0 0.0 21.9
2015-Apr-16 23:13N 28°58' W 042°10'113.6 21.9
2015-Apr-16 23:09N 28°58' W 042°11'2 0.5 21.9
2015-Apr-16 19:49N 28°59' W 042°13'1 0.7 22.0
2015-Apr-16 18:54N 28°59' W 042°13'0 0.0 22.0
2015-Apr-16 18:06N 28°59' W 042°13'1 0.6 22.0
2015-Apr-16 15:57N 28°59' W 042°15'1 0.2 22.0
2015-Apr-16 11:58N 28°58' W 042°16'0 0.3 21.9
2015-Apr-16 11:01N 28°59' W 042°16'0 8.7 21.8
2015-Apr-16 10:58N 28°59' W 042°16'0 0.0 21.8
2015-Apr-16 10:11N 28°59' W 042°16'0 0.5 21.8
2015-Apr-16 09:09N 28°59' W 042°16'0 2.4 21.8
2015-Apr-16 09:04N 28°58' W 042°16'0 0.2 21.8
2015-Apr-16 06:12N 28°59' W 042°16'011.9 21.9
2015-Apr-16 06:11N 28°59' W 042°16'1 0.1 21.9
2015-Apr-15 22:41N 28°59' W 042°17'0 0.4 22.3
2015-Apr-15 21:50N 28°60' W 042°17'0 0.0 22.3
2015-Apr-15 20:58N 28°60' W 042°17'1 0.4 22.4
2015-Apr-15 19:05N 29°00' W 042°18'1 0.5 22.5
2015-Apr-15 17:52N 29°01' W 042°17'0 0.3 22.7
2015-Apr-15 16:13N 29°01' W 042°18'0 0.2 22.3
2015-Apr-15 13:57N 29°01' W 042°18'1 0.6 22.3
2015-Apr-15 12:12N 29°02' W 042°17'0 0.5
2015-Apr-15 11:18N 29°02' W 042°17'0 0.0 21.9
2015-Apr-15 09:21N 29°02' W 042°17'1 4.2 21.8
2015-Apr-15 09:13N 29°03' W 042°16'0 0.0
2015-Apr-15 08:50N 29°03' W 042°16'0 0.2 21.9
2015-Apr-15 07:09N 29°03' W 042°16'3 0.4 21.8
2015-Apr-14 23:53N 29°05' W 042°17'1 1.2 22.3
2015-Apr-14 22:56N 29°06' W 042°16'0 0.3 22.3
2015-Apr-14 22:10N 29°06' W 042°17'0 0.0 22.3
2015-Apr-14 20:55N 29°06' W 042°17'1 0.7 22.6
2015-Apr-14 19:17N 29°07' W 042°18'0 0.0 22.6
2015-Apr-14 18:57N 29°07' W 042°18'0 2.2 22.8
2015-Apr-14 18:52N 29°07' W 042°18'0 0.2 22.8
2015-Apr-14 18:02N 29°07' W 042°18'2 0.3 22.9
2015-Apr-14 09:16N 29°09' W 042°18'0 0.0 21.8
2015-Apr-14 07:50N 29°09' W 042°18'0 0.0 21.9
2015-Apr-14 07:42N 29°09' W 042°18'1 0.4 21.9
2015-Apr-14 04:57N 29°10' W 042°18'1 0.8 22.1
2015-Apr-14 03:12N 29°11' W 042°19'1 0.3
2015-Apr-14 00:10N 29°12' W 042°20'2 0.6 22.6
2015-Apr-13 21:03N 29°14' W 042°21'116.5 23.2
2015-Apr-13 20:58N 29°13' W 042°19'3 0.6 23.2
2015-Apr-13 14:50N 29°16' W 042°21'0 0.1 22.7
2015-Apr-13 12:54N 29°16' W 042°21'1 0.5 21.9
2015-Apr-13 11:57N 29°16' W 042°21'0 0.3 21.7
2015-Apr-13 11:16N 29°17' W 042°22'0 3.8 21.7
2015-Apr-13 11:11N 29°17' W 042°22'0 0.0 21.6
2015-Apr-13 07:58N 29°17' W 042°22'011.2
2015-Apr-13 07:57N 29°17' W 042°22'0 0.1 21.6
2015-Apr-13 05:09N 29°17' W 042°22'0 3.7 21.6
2015-Apr-13 05:04N 29°17' W 042°22'1 0.2 21.6
2015-Apr-12 22:55N 29°16' W 042°23'1 1.1 21.7
2015-Apr-12 21:57N 29°17' W 042°23'0 0.1
2015-Apr-12 18:04N 29°17' W 042°24'0 0.0 22.6
2015-Apr-12 17:59N 29°17' W 042°24'1 0.4 22.6
2015-Apr-12 15:04N 29°18' W 042°25'0 0.2 22.2
2015-Apr-12 14:07N 29°18' W 042°24'1 0.3 21.8
2015-Apr-12 12:18N 29°19' W 042°24'1 0.4 21.5
2015-Apr-12 10:20N 29°20' W 042°25'0 1.7 21.4
2015-Apr-12 10:11N 29°20' W 042°25'1 2.3 21.4
2015-Apr-12 09:53N 29°20' W 042°24'0 0.0 21.4
2015-Apr-12 08:12N 29°20' W 042°24'1 0.6 21.4
2015-Apr-12 07:02N 29°21' W 042°25'1 0.6 21.4
2015-Apr-12 05:19N 29°22' W 042°25'1 7.6 21.4
2015-Apr-12 05:12N 29°23' W 042°26'1 0.3 21.4
2015-Apr-12 01:43N 29°24' W 042°26'0 2.7 21.5
2015-Apr-12 01:39N 29°24' W 042°26'0 0.1 21.5
2015-Apr-12 00:58N 29°24' W 042°26'1 0.9 21.6
2015-Apr-12 00:05N 29°24' W 042°27'0 2.1 21.7
2015-Apr-11 23:58N 29°24' W 042°27'0 0.0 21.7
2015-Apr-11 23:19N 29°24' W 042°27'1 5.0 21.8
2015-Apr-11 23:10N 29°25' W 042°27'0 0.0 21.8
2015-Apr-11 22:23N 29°25' W 042°27'110.1 22.0
2015-Apr-11 22:20N 29°25' W 042°27'1 1.2 22.0
2015-Apr-11 21:49N 29°25' W 042°28'0 0.0 22.0
2015-Apr-11 21:26N 29°25' W 042°28'1 0.7 22.2
2015-Apr-11 19:43N 29°26' W 042°29'0 0.2
2015-Apr-11 18:28N 29°26' W 042°29'0 0.0
2015-Apr-11 18:10N 29°26' W 042°29'0 0.4 23.1
2015-Apr-11 16:57N 29°26' W 042°29'1 0.8 23.5
2015-Apr-11 15:12N 29°26' W 042°31'1 0.3 22.9
2015-Apr-11 11:56N 29°27' W 042°32'1 1.4 21.4
2015-Apr-11 11:02N 29°28' W 042°32'0 0.2 21.3
2015-Apr-11 10:05N 29°28' W 042°32'0 0.0 21.2
2015-Apr-11 09:12N 29°28' W 042°32'2 0.5 21.1
2015-Apr-11 05:32N 29°30' W 042°32'1 0.6 21.2
2015-Apr-11 03:51N 29°31' W 042°32'0 0.0 21.4
2015-Apr-11 01:12N 29°31' W 042°32'0 0.0 21.5
2015-Apr-11 00:27N 29°31' W 042°32'0 0.2 21.5
2015-Apr-10 22:46N 29°31' W 042°32'1 5.9 21.5
2015-Apr-10 22:38N 29°32' W 042°33'0 0.2 21.5
2015-Apr-10 20:37N 29°32' W 042°33'0 0.0 21.8
2015-Apr-10 20:25N 29°32' W 042°33'0 0.9 21.9
2015-Apr-10 20:01N 29°32' W 042°33'0 4.3 21.9
2015-Apr-10 19:58N 29°32' W 042°32'1 1.0 21.9
2015-Apr-10 18:57N 29°33' W 042°33'0 0.4 22.0
2015-Apr-10 18:14N 29°33' W 042°33'0 0.0 22.0
2015-Apr-10 17:09N 29°33' W 042°33'0 0.2 22.0
2015-Apr-10 14:01N 29°33' W 042°34'1 0.7 21.5
2015-Apr-10 12:57N 29°33' W 042°35'0 0.3
2015-Apr-10 12:12N 29°33' W 042°35'1 0.3 21.2
2015-Apr-10 09:18N 29°34' W 042°36'0 2.1 21.1
2015-Apr-10 09:12N 29°34' W 042°36'0 0.0 21.1
2015-Apr-10 08:37N 29°34' W 042°36'1 5.1 21.1
2015-Apr-10 08:31N 29°34' W 042°36'0 0.9 21.1
2015-Apr-10 08:08N 29°34' W 042°36'0 0.7 21.1
2015-Apr-10 07:38N 29°34' W 042°36'0 1.1 21.1
2015-Apr-10 07:24N 29°34' W 042°36'0 0.6 21.1
2015-Apr-10 06:57N 29°34' W 042°36'0 0.3 21.1
2015-Apr-10 05:40N 29°35' W 042°36'0 0.2 21.1
2015-Apr-10 03:59N 29°35' W 042°36'132.1 21.2
2015-Apr-10 03:57N 29°36' W 042°37'0 0.0 21.2
2015-Apr-10 00:42N 29°36' W 042°37'1 0.7 21.2
2015-Apr-09 23:58N 29°36' W 042°38'0 2.4 21.2
2015-Apr-09 23:56N 29°36' W 042°38'   21.2
Track history (hours):
 
Tides and Currents Weather Stations Pressure Air Temp Water Temp Dewpoint Dewpoint Depression Visibility Wind Speed Wind Dir Waves Ship Positions

Drifting buoy 41991

Last reported at 2015-Apr-19 23:53 UTC. Time now 2015-Apr-20 00:49 UTC.
Position N 28°48' W 042°11'.

Water temperature 21.4 ° C

Date/timePositionNaut miles runAvg speedWind from/ knotsBaromVisibWave heightAir tempDewpointWater temp
2015-Apr-19 23:53N 28°48' W 042°11'0 0.0 21.4
2015-Apr-19 23:49N 28°48' W 042°11'1 1.3 21.4
2015-Apr-19 22:57N 28°47' W 042°10'120.9 21.5
2015-Apr-19 22:54N 28°48' W 042°11'1 0.9 21.5
2015-Apr-19 21:50N 28°47' W 042°10'0 0.0 21.5
2015-Apr-19 20:10N 28°47' W 042°10'1 3.7 21.6
2015-Apr-19 19:57N 28°47' W 042°11'1 0.2 21.7
2015-Apr-19 17:08N 28°47' W 042°12'3 0.3 21.7
2015-Apr-19 07:11N 28°44' W 042°11'0 0.0 21.6
2015-Apr-19 03:58N 28°44' W 042°11'010.9 21.6
2015-Apr-19 03:56N 28°44' W 042°11'0 0.1 21.6
2015-Apr-19 00:11N 28°45' W 042°11'0 4.2 21.6
2015-Apr-19 00:04N 28°44' W 042°10'1 0.2
2015-Apr-18 20:11N 28°44' W 042°10'1 7.8 21.7
2015-Apr-18 20:07N 28°45' W 042°10'1 0.9 21.7
2015-Apr-18 18:58N 28°44' W 042°09'1 0.1 21.7
2015-Apr-18 11:58N 28°45' W 042°09'111.3 21.7
2015-Apr-18 11:55N 28°45' W 042°09'0 0.0 21.7
2015-Apr-18 11:10N 28°45' W 042°09'0 0.8 21.7
2015-Apr-18 10:31N 28°45' W 042°09'0 0.2 21.6
2015-Apr-18 09:14N 28°45' W 042°08'1 0.2 21.6
2015-Apr-18 07:04N 28°45' W 042°08'0 1.4 21.6
2015-Apr-18 06:57N 28°45' W 042°08'1 0.3 21.6
2015-Apr-18 04:11N 28°45' W 042°07'119.3 21.7
2015-Apr-18 04:08N 28°45' W 042°06'1 0.2 21.7
2015-Apr-17 22:54N 28°46' W 042°06'1 1.5 21.7
2015-Apr-17 21:57N 28°47' W 042°04'0 0.3 21.7
2015-Apr-17 21:03N 28°47' W 042°04'1 0.5 21.7
2015-Apr-17 19:57N 28°47' W 042°04'0 9.6 21.8
2015-Apr-17 19:55N 28°47' W 042°04'4 0.6 21.8
2015-Apr-17 14:02N 28°51' W 042°03'0 0.0 21.8
2015-Apr-17 13:12N 28°51' W 042°03'1 0.8 21.8
2015-Apr-17 12:26N 28°52' W 042°04'1 6.9 21.8
2015-Apr-17 12:15N 28°53' W 042°05'1 0.2 21.8
2015-Apr-17 08:57N 28°53' W 042°05'111.4 21.8
2015-Apr-17 08:52N 28°54' W 042°06'0 0.0 21.8
2015-Apr-17 08:06N 28°54' W 042°06'0 0.4 21.8
2015-Apr-17 07:12N 28°54' W 042°06'116.4 21.7
2015-Apr-17 07:10N 28°55' W 042°06'0 0.0 21.7
2015-Apr-17 06:06N 28°55' W 042°06'0 9.8 21.7
2015-Apr-17 06:03N 28°55' W 042°06'113.3 21.7
2015-Apr-17 05:57N 28°55' W 042°07'2 0.5
2015-Apr-17 01:41N 28°57' W 042°07'2 2.8 21.8
2015-Apr-17 00:51N 28°58' W 042°10'0 0.0 21.8
2015-Apr-16 23:57N 28°58' W 042°10'0 0.0 21.9
2015-Apr-16 23:13N 28°58' W 042°10'113.6 21.9
2015-Apr-16 23:09N 28°58' W 042°11'2 0.5 21.9
2015-Apr-16 19:49N 28°59' W 042°13'1 0.7 22.0
2015-Apr-16 18:54N 28°59' W 042°13'0 0.0 22.0
2015-Apr-16 18:06N 28°59' W 042°13'1 0.6 22.0
2015-Apr-16 15:57N 28°59' W 042°15'1 0.2 22.0
2015-Apr-16 11:58N 28°58' W 042°16'0 0.3 21.9
2015-Apr-16 11:01N 28°59' W 042°16'0 8.7 21.8
2015-Apr-16 10:58N 28°59' W 042°16'0 0.0 21.8
2015-Apr-16 10:11N 28°59' W 042°16'0 0.5 21.8
2015-Apr-16 09:09N 28°59' W 042°16'0 2.4 21.8
2015-Apr-16 09:04N 28°58' W 042°16'0 0.2 21.8
2015-Apr-16 06:12N 28°59' W 042°16'011.9 21.9
2015-Apr-16 06:11N 28°59' W 042°16'1 0.1 21.9
2015-Apr-15 22:41N 28°59' W 042°17'0 0.4 22.3
2015-Apr-15 21:50N 28°60' W 042°17'0 0.0 22.3
2015-Apr-15 20:58N 28°60' W 042°17'1 0.4 22.4
2015-Apr-15 19:05N 29°00' W 042°18'1 0.5 22.5
2015-Apr-15 17:52N 29°01' W 042°17'0 0.3 22.7
2015-Apr-15 16:13N 29°01' W 042°18'0 0.2 22.3
2015-Apr-15 13:57N 29°01' W 042°18'1 0.6 22.3
2015-Apr-15 12:12N 29°02' W 042°17'0 0.5
2015-Apr-15 11:18N 29°02' W 042°17'0 0.0 21.9
2015-Apr-15 09:21N 29°02' W 042°17'1 4.2 21.8
2015-Apr-15 09:13N 29°03' W 042°16'0 0.0
2015-Apr-15 08:50N 29°03' W 042°16'0 0.2 21.9
2015-Apr-15 07:09N 29°03' W 042°16'3 0.4 21.8
2015-Apr-14 23:53N 29°05' W 042°17'1 1.2 22.3
2015-Apr-14 22:56N 29°06' W 042°16'0 0.3 22.3
2015-Apr-14 22:10N 29°06' W 042°17'0 0.0 22.3
2015-Apr-14 20:55N 29°06' W 042°17'1 0.7 22.6
2015-Apr-14 19:17N 29°07' W 042°18'0 0.0 22.6
2015-Apr-14 18:57N 29°07' W 042°18'0 2.2 22.8
2015-Apr-14 18:52N 29°07' W 042°18'0 0.2 22.8
2015-Apr-14 18:02N 29°07' W 042°18'2 0.3 22.9
2015-Apr-14 09:16N 29°09' W 042°18'0 0.0 21.8
2015-Apr-14 07:50N 29°09' W 042°18'0 0.0 21.9
2015-Apr-14 07:42N 29°09' W 042°18'1 0.4 21.9
2015-Apr-14 04:57N 29°10' W 042°18'1 0.8 22.1
2015-Apr-14 03:12N 29°11' W 042°19'1 0.3
2015-Apr-14 00:10N 29°12' W 042°20'2 0.6 22.6
2015-Apr-13 21:03N 29°14' W 042°21'116.5 23.2
2015-Apr-13 20:58N 29°13' W 042°19'3 0.6 23.2
2015-Apr-13 14:50N 29°16' W 042°21'0 0.1 22.7
2015-Apr-13 12:54N 29°16' W 042°21'1 0.5 21.9
2015-Apr-13 11:57N 29°16' W 042°21'0 0.3 21.7
2015-Apr-13 11:16N 29°17' W 042°22'0 3.8 21.7
2015-Apr-13 11:11N 29°17' W 042°22'0 0.0 21.6
2015-Apr-13 07:58N 29°17' W 042°22'011.2
2015-Apr-13 07:57N 29°17' W 042°22'0 0.1 21.6
2015-Apr-13 05:09N 29°17' W 042°22'0 3.7 21.6
2015-Apr-13 05:04N 29°17' W 042°22'1 0.2 21.6
2015-Apr-12 22:55N 29°16' W 042°23'1 1.1 21.7
2015-Apr-12 21:57N 29°17' W 042°23'0 0.1
2015-Apr-12 18:04N 29°17' W 042°24'0 0.0 22.6
2015-Apr-12 17:59N 29°17' W 042°24'1 0.4 22.6
2015-Apr-12 15:04N 29°18' W 042°25'0 0.2 22.2
2015-Apr-12 14:07N 29°18' W 042°24'1 0.3 21.8
2015-Apr-12 12:18N 29°19' W 042°24'1 0.4 21.5
2015-Apr-12 10:20N 29°20' W 042°25'0 1.7 21.4
2015-Apr-12 10:11N 29°20' W 042°25'1 2.3 21.4
2015-Apr-12 09:53N 29°20' W 042°24'0 0.0 21.4
2015-Apr-12 08:12N 29°20' W 042°24'1 0.6 21.4
2015-Apr-12 07:02N 29°21' W 042°25'1 0.6 21.4
2015-Apr-12 05:19N 29°22' W 042°25'1 7.6 21.4
2015-Apr-12 05:12N 29°23' W 042°26'1 0.3 21.4
2015-Apr-12 01:43N 29°24' W 042°26'0 2.7 21.5
2015-Apr-12 01:39N 29°24' W 042°26'0 0.1 21.5
2015-Apr-12 00:58N 29°24' W 042°26'1 0.9 21.6
2015-Apr-12 00:05N 29°24' W 042°27'0 2.1 21.7
2015-Apr-11 23:58N 29°24' W 042°27'0 0.0 21.7
2015-Apr-11 23:19N 29°24' W 042°27'1 5.0 21.8
2015-Apr-11 23:10N 29°25' W 042°27'0 0.0 21.8
2015-Apr-11 22:23N 29°25' W 042°27'110.1 22.0
2015-Apr-11 22:20N 29°25' W 042°27'1 1.2 22.0
2015-Apr-11 21:49N 29°25' W 042°28'0 0.0 22.0
2015-Apr-11 21:26N 29°25' W 042°28'1 0.7 22.2
2015-Apr-11 19:43N 29°26' W 042°29'0 0.2
2015-Apr-11 18:28N 29°26' W 042°29'0 0.0
2015-Apr-11 18:10N 29°26' W 042°29'0 0.4 23.1
2015-Apr-11 16:57N 29°26' W 042°29'1 0.8 23.5
2015-Apr-11 15:12N 29°26' W 042°31'1 0.3 22.9
2015-Apr-11 11:56N 29°27' W 042°32'1 1.4 21.4
2015-Apr-11 11:02N 29°28' W 042°32'0 0.2 21.3
2015-Apr-11 10:05N 29°28' W 042°32'0 0.0 21.2
2015-Apr-11 09:12N 29°28' W 042°32'2 0.5 21.1
2015-Apr-11 05:32N 29°30' W 042°32'1 0.6 21.2
2015-Apr-11 03:51N 29°31' W 042°32'0 0.0 21.4
2015-Apr-11 01:12N 29°31' W 042°32'0 0.0 21.5
2015-Apr-11 00:27N 29°31' W 042°32'0 0.2 21.5
2015-Apr-10 22:46N 29°31' W 042°32'1 5.9 21.5
2015-Apr-10 22:38N 29°32' W 042°33'0 0.2 21.5
2015-Apr-10 20:37N 29°32' W 042°33'0 0.0 21.8
2015-Apr-10 20:25N 29°32' W 042°33'0 0.9 21.9
2015-Apr-10 20:01N 29°32' W 042°33'0 4.3 21.9
2015-Apr-10 19:58N 29°32' W 042°32'1 1.0 21.9
2015-Apr-10 18:57N 29°33' W 042°33'0 0.4 22.0
2015-Apr-10 18:14N 29°33' W 042°33'0 0.0 22.0
2015-Apr-10 17:09N 29°33' W 042°33'0 0.2 22.0
2015-Apr-10 14:01N 29°33' W 042°34'1 0.7 21.5
2015-Apr-10 12:57N 29°33' W 042°35'0 0.3
2015-Apr-10 12:12N 29°33' W 042°35'1 0.3 21.2
2015-Apr-10 09:18N 29°34' W 042°36'0 2.1 21.1
2015-Apr-10 09:12N 29°34' W 042°36'0 0.0 21.1
2015-Apr-10 08:37N 29°34' W 042°36'1 5.1 21.1
2015-Apr-10 08:31N 29°34' W 042°36'0 0.9 21.1
2015-Apr-10 08:08N 29°34' W 042°36'0 0.7 21.1
2015-Apr-10 07:38N 29°34' W 042°36'0 1.1 21.1
2015-Apr-10 07:24N 29°34' W 042°36'0 0.6 21.1
2015-Apr-10 06:57N 29°34' W 042°36'0 0.3 21.1
2015-Apr-10 05:40N 29°35' W 042°36'0 0.2 21.1
2015-Apr-10 03:59N 29°35' W 042°36'132.1 21.2
2015-Apr-10 03:57N 29°36' W 042°37'0 0.0 21.2
2015-Apr-10 00:42N 29°36' W 042°37'1 0.7 21.2
2015-Apr-09 23:58N 29°36' W 042°38'0 2.4 21.2
2015-Apr-09 23:56N 29°36' W 042°38'   21.2

Dump ship's entire track history